Sidnaw, MI

10:09 AM EDT on July 29, 2014 (GMT -0400)
Kings Land O'Lakes (KLNL) Elev 1706 ft | 46.15 °N, 89.21 °W | Change Station

Current weather conditions updated 14 minutes ago

Mostly Cloudy
Mostly Cloudy
62 °F
Feels Like 62 °F
N
7
Wind Variable Wind from NW

Today is forecast to be nearly the same temperature as yesterday. Scattered thunderstorms.

Today
High -- | Low -- °F
--% Chance of Precip.
Yesterday
High -- | Low -- °F
Precip. -- in
6:32 AM 9:29 PM
Waxing Crescent, 6% visible
Pressure 30.06 in
Visibility 10.0 miles
Clouds Scattered Clouds 1500 ft
Mostly Cloudy 10000 ft
Mostly Cloudy 12000 ft
Dew Point 55 °F
Humidity 78%
Rainfall 0.02 in
Snow Depth Not available.
UV 2 out of 12
Pollen 7.10 out of 12
Air Quality Not available.
Flu Activity Not available.
METAR KLNL 291355Z AUTO 32006KT 10SM SCT015 BKN100 BKN120 17/13 A3006 RMK AO2 T01680130

More Conditions Fewer Conditions

Pressure 30.06 in
Visibility 10.0 miles
Clouds Scattered Clouds 1500 ft
Mostly Cloudy 10000 ft
Mostly Cloudy 12000 ft
Dew Point 55 °F
Humidity 78%
Rainfall 0.02 in
Snow Depth Not available.
UV 2 out of 12
Pollen 7.10 out of 12
Air Quality Not available.
Flu Activity Not available.
METAR KLNL 291355Z AUTO 32006KT 10SM SCT015 BKN100 BKN120 17/13 A3006 RMK AO2 T01680130

More Conditions Fewer Conditions

10-Day Weather Forecast

Almanac

Astronomy

Jul. 29, 2014 Rise Set
Actual Time 6:32 AM EDT 9:29 PM EDT
Civil Twilight 5:56 AM EDT 10:05 PM EDT
Nautical Twilight 5:11 AM EDT 10:50 PM EDT
Astronomical Twilight 4:16 AM EDT 11:44 PM EDT
Moon 9:21 AM EDT 10:27 PM EDT
Length of Visible Light 16h 08m
Length of Day
14h 57m
Tomorrow will be 2m 28s shorter.
Waxing Crescent, 6% of the Moon is Illuminated
Today
Waxing Crescent
Aug 3
First Quarter
Aug 10
Full
Aug 17
Last Quarter
Aug 25
New

Today's Extremes

State Highs State Lows

Community

WunderPhotos

Upload Photos

1,738,732 photos uploaded!

Nearby

Snow Depth

Station Depth Elevation
No new snow has been reported.

Earthquake Activity

City Distance Mag. Time & Date
No recent earthquake activity has been reported nearby.
Minimum magnitude displayed is 2.5.

Coastal Water Temperatures

Place Temperature
No Stations Reporting

Nearby Weather Stations

Station Location Temp. Dew Point Humidity Wind Precip. Elev Updated Type
RAWS KENTON MI, Nisula, MI 58 °F 55 °F 91% NW  at  3 mph 0.00 in / hr 1262 ft 8:56 AM EDT MADIS
MesoWest Trout Creek ESS , Kenton, MI 57 °F 54 °F 90% West  at  2 mph 0.00 in / hr 1521 ft 8:35 AM EDT MADIS
MesoWest Nisula ESS , Mass City, MI 55 °F 55 °F 100% West  at  2 mph 0.00 in / hr 1184 ft 8:35 AM EDT MADIS

Show More Stations Show Fewer Stations